Time;durP1;ratioP1;P1;durP2;ratioP2;P2;SDS_P1;SDS_P2;PMS_P1;PMS_P2;Temp;Humidity;BMP_temperature;BMP_pressure;BME280_temperature;BME280_humidity;BME280_pressure;Samples;Min_cycle;Max_cycle;Signal;HPM_P1;HPM_P2
2023/07/29 00:01:31;;;;;;;9.30;4.03;;;;;;;;;;4954487;28;20035;-73
2023/07/29 00:03:57;;;;;;;3.90;3.50;;;;;;;;;;4953383;29;20176;-72
2023/07/29 00:06:23;;;;;;;4.45;4.07;;;;;;;;;;4954586;29;20054;-73
2023/07/29 00:08:49;;;;;;;7.75;4.38;;;;;;;;;;4952910;29;20047;-72
2023/07/29 00:11:15;;;;;;;4.25;3.85;;;;;;;;;;4954585;29;20031;-73
2023/07/29 00:13:41;;;;;;;3.47;3.17;;;;;;;;;;4955513;28;20502;-73
2023/07/29 00:16:07;;;;;;;3.42;2.80;;;;;;;;;;4953672;29;20469;-72
2023/07/29 00:18:33;;;;;;;3.47;3.17;;;;;;;;;;4954350;28;20043;-73
2023/07/29 00:20:59;;;;;;;3.42;3.13;;;;;;;;;;4957054;28;20038;-73
2023/07/29 00:23:25;;;;;;;4.70;3.70;;;;;;;;;;4959095;28;20035;-73
2023/07/29 00:25:52;;;;;;;6.95;3.83;;;;;;;;;;4957220;28;20031;-73
2023/07/29 00:28:18;;;;;;;4.10;3.42;;;;;;;;;;4953120;28;20034;-72
2023/07/29 00:30:44;;;;;;;3.72;3.38;;;;;;;;;;4952670;29;20067;-74
2023/07/29 00:33:10;;;;;;;3.45;3.25;;;;;;;;;;4952895;29;20053;-73
2023/07/29 00:35:38;;;;;;;3.22;3.03;;;;;;;;;;4953876;28;20062;-72
2023/07/29 00:38:04;;;;;;;3.40;3.20;;;;;;;;;;4954078;29;20490;-74
2023/07/29 00:40:30;;;;;;;3.95;3.65;;;;;;;;;;4953667;28;20050;-73
2023/07/29 00:42:56;;;;;;;4.32;3.30;;;;;;;;;;4953965;28;20277;-73
2023/07/29 00:45:23;;;;;;;6.00;3.35;;;;;;;;;;4952713;29;20122;-72
2023/07/29 00:47:49;;;;;;;4.00;3.70;;;;;;;;;;4952606;28;20035;-73
2023/07/29 00:50:16;;;;;;;4.25;3.90;;;;;;;;;;4951791;28;20054;-72
2023/07/29 00:52:42;;;;;;;4.75;4.45;;;;;;;;;;4936291;29;20039;-72
2023/07/29 00:55:08;;;;;;;5.78;5.32;;;;;;;;;;4953490;28;20039;-72
2023/07/29 00:57:35;;;;;;;5.50;4.95;;;;;;;;;;4951997;29;20062;-73
2023/07/29 01:00:02;;;;;;;4.93;4.30;;;;;;;;;;4952170;29;20042;-73
2023/07/29 01:02:33;;;;;;;5.95;5.13;;;;;;;;;;4953359;29;20031;-72
2023/07/29 01:04:59;;;;;;;4.97;4.25;;;;;;;;;;4953341;28;20568;-72
2023/07/29 01:07:34;;;;;;;5.15;3.83;;;;;;;;;;4953718;28;20085;-73
2023/07/29 01:10:03;;;;;;;4.40;4.00;;;;;;;;;;4953220;28;20051;-72
2023/07/29 01:12:38;;;;;;;4.65;4.05;;;;;;;;;;4952124;29;20035;-73
2023/07/29 01:15:09;;;;;;;3.60;3.40;;;;;;;;;;4952353;28;20043;-72
2023/07/29 01:17:55;;;;;;;4.03;3.72;;;;;;;;;;4953189;28;20035;-71
2023/07/29 01:20:22;;;;;;;8.00;5.78;;;;;;;;;;4953019;29;20047;-73
2023/07/29 01:22:48;;;;;;;6.30;3.90;;;;;;;;;;4951886;29;20552;-73
2023/07/29 01:25:14;;;;;;;5.40;3.75;;;;;;;;;;4951841;29;20047;-72
2023/07/29 01:27:41;;;;;;;3.35;3.08;;;;;;;;;;4951688;29;20039;-72
2023/07/29 01:30:08;;;;;;;3.78;3.47;;;;;;;;;;4952795;28;20518;-73
2023/07/29 01:32:40;;;;;;;3.13;2.92;;;;;;;;;;4935721;29;20058;-73
2023/07/29 01:35:06;;;;;;;3.20;3.10;;;;;;;;;;4951649;29;20101;-72
2023/07/29 01:37:32;;;;;;;3.40;3.10;;;;;;;;;;4952693;29;20046;-73
2023/07/29 01:39:59;;;;;;;3.03;2.83;;;;;;;;;;4951626;28;20094;-73
2023/07/29 01:42:25;;;;;;;2.67;2.38;;;;;;;;;;4952927;28;20039;-72
2023/07/29 01:44:51;;;;;;;3.58;3.03;;;;;;;;;;4952482;29;20039;-74
2023/07/29 01:47:17;;;;;;;2.75;2.60;;;;;;;;;;4952643;28;20031;-72
2023/07/29 01:49:43;;;;;;;3.15;2.85;;;;;;;;;;4952292;29;20085;-73
2023/07/29 01:52:09;;;;;;;3.08;2.80;;;;;;;;;;4952846;28;20031;-72
2023/07/29 01:54:35;;;;;;;3.03;2.80;;;;;;;;;;4951268;29;20403;-72
2023/07/29 01:57:01;;;;;;;2.78;2.67;;;;;;;;;;4952449;28;20051;-73
2023/07/29 01:59:28;;;;;;;3.70;2.90;;;;;;;;;;4951385;29;20039;-72
2023/07/29 02:01:53;;;;;;;4.00;2.97;;;;;;;;;;4951113;28;20510;-73
2023/07/29 02:04:20;;;;;;;3.67;3.30;;;;;;;;;;4952363;29;20078;-74
2023/07/29 02:06:46;;;;;;;3.35;3.13;;;;;;;;;;4951086;29;20118;-74
2023/07/29 02:09:12;;;;;;;3.33;3.10;;;;;;;;;;4952146;28;20078;-72
2023/07/29 02:11:37;;;;;;;3.50;3.20;;;;;;;;;;4950969;29;20453;-72
2023/07/29 02:14:04;;;;;;;4.10;3.33;;;;;;;;;;4950992;29;20131;-72
2023/07/29 02:16:30;;;;;;;5.53;3.20;;;;;;;;;;4951190;29;20043;-73
2023/07/29 02:18:56;;;;;;;3.15;2.90;;;;;;;;;;4952141;28;20043;-72
2023/07/29 02:21:23;;;;;;;4.40;2.75;;;;;;;;;;4952491;28;20494;-72
2023/07/29 02:23:49;;;;;;;3.45;3.15;;;;;;;;;;4951005;29;20043;-73
2023/07/29 02:26:16;;;;;;;3.15;2.95;;;;;;;;;;4952190;28;20042;-74
2023/07/29 02:28:42;;;;;;;3.83;2.95;;;;;;;;;;4934549;29;20418;-73
2023/07/29 02:31:17;;;;;;;3.10;3.00;;;;;;;;;;4952047;28;20039;-73
2023/07/29 02:33:44;;;;;;;4.43;3.10;;;;;;;;;;4934936;29;20050;-72
2023/07/29 02:36:11;;;;;;;4.85;3.17;;;;;;;;;;4950794;29;20375;-73
2023/07/29 02:38:37;;;;;;;3.53;3.03;;;;;;;;;;4950619;29;20126;-73
2023/07/29 02:41:03;;;;;;;4.65;2.90;;;;;;;;;;4950679;29;20625;-73
2023/07/29 02:43:29;;;;;;;3.67;3.13;;;;;;;;;;4950755;29;20035;-72
2023/07/29 02:45:55;;;;;;;3.08;2.88;;;;;;;;;;4950320;29;20027;-74
2023/07/29 02:48:21;;;;;;;3.00;2.90;;;;;;;;;;4950743;29;20050;-71
2023/07/29 02:50:47;;;;;;;2.83;2.70;;;;;;;;;;4950293;29;20039;-71
2023/07/29 02:53:13;;;;;;;4.32;3.92;;;;;;;;;;4951841;28;20082;-72
2023/07/29 02:55:42;;;;;;;4.00;3.80;;;;;;;;;;4951347;28;20136;-72
2023/07/29 02:58:08;;;;;;;4.13;3.92;;;;;;;;;;4950419;29;20043;-71
2023/07/29 03:00:35;;;;;;;4.15;3.85;;;;;;;;;;4950841;29;20126;-72
2023/07/29 03:03:01;;;;;;;3.90;3.60;;;;;;;;;;4951410;29;20043;-73
2023/07/29 03:05:27;;;;;;;5.22;3.75;;;;;;;;;;4951743;29;20047;-71
2023/07/29 03:07:53;;;;;;;3.58;3.30;;;;;;;;;;4950464;29;20034;-73
2023/07/29 03:10:20;;;;;;;4.28;3.95;;;;;;;;;;4951537;28;20047;-73
2023/07/29 03:12:46;;;;;;;3.45;3.25;;;;;;;;;;4953218;28;20034;-72
2023/07/29 03:15:12;;;;;;;4.30;4.00;;;;;;;;;;4954277;29;20031;-73
2023/07/29 03:17:38;;;;;;;3.45;3.25;;;;;;;;;;4955296;28;20121;-72
2023/07/29 03:20:04;;;;;;;5.78;3.63;;;;;;;;;;4954184;29;20043;-73
2023/07/29 03:22:31;;;;;;;3.70;3.50;;;;;;;;;;4954338;29;20031;-73
2023/07/29 03:24:57;;;;;;;4.10;3.90;;;;;;;;;;4955339;28;20050;-71
2023/07/29 03:27:23;;;;;;;4.90;4.60;;;;;;;;;;4955351;29;20402;-71
2023/07/29 03:29:49;;;;;;;3.95;3.65;;;;;;;;;;4954938;29;20047;-71
2023/07/29 03:32:15;;;;;;;4.80;4.13;;;;;;;;;;4954062;29;20043;-72
2023/07/29 03:34:42;;;;;;;4.05;3.55;;;;;;;;;;4953667;29;20053;-71
2023/07/29 03:37:08;;;;;;;3.05;2.92;;;;;;;;;;4938028;29;20027;-73
2023/07/29 03:39:34;;;;;;;5.13;4.00;;;;;;;;;;4955131;28;20055;-73
2023/07/29 03:42:00;;;;;;;4.25;4.00;;;;;;;;;;4953540;29;20138;-72
2023/07/29 03:44:26;;;;;;;3.38;3.17;;;;;;;;;;4953798;29;20138;-72
2023/07/29 03:46:52;;;;;;;3.50;3.30;;;;;;;;;;4953548;29;20051;-72
2023/07/29 03:49:19;;;;;;;3.72;3.50;;;;;;;;;;4954776;29;20051;-72
2023/07/29 03:51:45;;;;;;;3.40;3.20;;;;;;;;;;4953417;29;20173;-72
2023/07/29 03:54:11;;;;;;;3.58;3.28;;;;;;;;;;4955156;28;20078;-71
2023/07/29 03:56:38;;;;;;;3.92;3.35;;;;;;;;;;4955175;28;20103;-71
2023/07/29 03:59:04;;;;;;;3.45;3.25;;;;;;;;;;4969802;28;20137;-73
2023/07/29 04:01:30;;;;;;;3.65;3.45;;;;;;;;;;4953675;29;20042;-73
2023/07/29 04:03:56;;;;;;;3.70;3.50;;;;;;;;;;4953216;29;20035;-72
2023/07/29 04:06:22;;;;;;;3.80;3.60;;;;;;;;;;4953374;29;20054;-72
2023/07/29 04:08:48;;;;;;;3.28;3.08;;;;;;;;;;4953146;29;20067;-72
2023/07/29 04:11:14;;;;;;;3.60;3.40;;;;;;;;;;4953279;28;20071;-72
2023/07/29 04:13:41;;;;;;;3.22;3.03;;;;;;;;;;4953162;29;20574;-72
2023/07/29 04:16:07;;;;;;;4.95;3.30;;;;;;;;;;4953189;29;20457;-73
2023/07/29 04:18:33;;;;;;;3.88;3.58;;;;;;;;;;4937248;29;20047;-72
2023/07/29 04:20:59;;;;;;;4.15;3.90;;;;;;;;;;4952801;29;20476;-72
2023/07/29 04:23:25;;;;;;;2.90;2.80;;;;;;;;;;4953518;28;20049;-72
2023/07/29 04:25:51;;;;;;;3.15;3.00;;;;;;;;;;4952336;29;20130;-72
2023/07/29 04:28:17;;;;;;;3.53;3.22;;;;;;;;;;4936972;29;20040;-72
2023/07/29 04:30:44;;;;;;;3.88;3.50;;;;;;;;;;4953925;28;20311;-73
2023/07/29 04:33:09;;;;;;;3.13;2.88;;;;;;;;;;4954117;28;20039;-73
2023/07/29 04:35:37;;;;;;;3.22;3.13;;;;;;;;;;4952803;29;20035;-72
2023/07/29 04:38:03;;;;;;;3.20;2.90;;;;;;;;;;4952409;29;20180;-72
2023/07/29 04:40:29;;;;;;;3.58;3.38;;;;;;;;;;4952798;29;20494;-72
2023/07/29 04:42:55;;;;;;;4.28;4.03;;;;;;;;;;4953847;28;20049;-72
2023/07/29 04:45:21;;;;;;;3.25;3.08;;;;;;;;;;4952532;29;20500;-72
2023/07/29 04:47:47;;;;;;;3.10;2.95;;;;;;;;;;4953803;28;20086;-72
2023/07/29 04:50:13;;;;;;;3.25;2.97;;;;;;;;;;4953758;28;20050;-73
2023/07/29 04:52:39;;;;;;;3.58;3.30;;;;;;;;;;4953996;28;20380;-73
2023/07/29 04:55:05;;;;;;;3.05;2.75;;;;;;;;;;4952311;29;20042;-73
2023/07/29 04:57:32;;;;;;;4.40;2.90;;;;;;;;;;4936690;29;20078;-73
2023/07/29 04:59:58;;;;;;;4.75;3.35;;;;;;;;;;4954242;28;20549;-73
2023/07/29 05:02:25;;;;;;;7.43;3.33;;;;;;;;;;4955219;29;20035;-73
2023/07/29 05:04:51;;;;;;;5.25;3.00;;;;;;;;;;4937859;29;20089;-72
2023/07/29 05:07:17;;;;;;;6.45;3.10;;;;;;;;;;4953573;29;20043;-75
2023/07/29 05:09:43;;;;;;;3.15;2.80;;;;;;;;;;4955815;28;20047;-74
2023/07/29 05:12:09;;;;;;;3.47;3.17;;;;;;;;;;4970730;28;20035;-74
2023/07/29 05:14:36;;;;;;;3.47;2.85;;;;;;;;;;4954696;29;20039;-75
2023/07/29 05:17:02;;;;;;;3.22;3.03;;;;;;;;;;4953170;29;20047;-73
2023/07/29 05:19:27;;;;;;;3.45;3.20;;;;;;;;;;4954901;28;20047;-74
2023/07/29 05:21:54;;;;;;;3.50;3.30;;;;;;;;;;4956147;28;20118;-75
2023/07/29 05:24:19;;;;;;;3.97;3.60;;;;;;;;;;4954906;29;20476;-74
2023/07/29 05:26:45;;;;;;;2.83;2.72;;;;;;;;;;4954293;28;20031;-74
2023/07/29 05:29:11;;;;;;;3.30;3.10;;;;;;;;;;4952954;28;20498;-73
2023/07/29 05:31:37;;;;;;;3.83;3.53;;;;;;;;;;4936584;29;20486;-73
2023/07/29 05:34:04;;;;;;;3.88;3.40;;;;;;;;;;4952182;29;20338;-74
2023/07/29 05:36:30;;;;;;;7.65;3.67;;;;;;;;;;4952487;28;20046;-74
2023/07/29 05:38:56;;;;;;;4.95;3.67;;;;;;;;;;4952356;28;20581;-73
2023/07/29 05:41:22;;;;;;;6.43;3.85;;;;;;;;;;4952669;28;20085;-73
2023/07/29 05:43:48;;;;;;;4.35;3.95;;;;;;;;;;4951455;29;20049;-73
2023/07/29 05:46:14;;;;;;;4.65;4.18;;;;;;;;;;4951602;29;20338;-75
2023/07/29 05:48:40;;;;;;;3.40;3.20;;;;;;;;;;4951712;29;20047;-74
2023/07/29 05:51:06;;;;;;;4.13;3.75;;;;;;;;;;4953099;28;20039;-72
2023/07/29 05:53:33;;;;;;;4.22;3.92;;;;;;;;;;4951831;29;20182;-73
2023/07/29 05:55:59;;;;;;;4.43;4.13;;;;;;;;;;4934950;29;20122;-74
2023/07/29 05:58:25;;;;;;;4.10;3.60;;;;;;;;;;4951297;29;20055;-74
2023/07/29 06:00:51;;;;;;;4.15;3.63;;;;;;;;;;4952393;29;20046;-74
2023/07/29 06:03:19;;;;;;;4.43;4.03;;;;;;;;;;4951252;29;20050;-74
2023/07/29 06:05:45;;;;;;;6.75;4.35;;;;;;;;;;4951205;29;20058;-74
2023/07/29 06:08:11;;;;;;;4.30;3.50;;;;;;;;;;4951265;29;20031;-74
2023/07/29 06:10:37;;;;;;;4.55;3.50;;;;;;;;;;4952348;29;20069;-75
2023/07/29 06:13:03;;;;;;;4.88;3.53;;;;;;;;;;4954819;28;20031;-76
2023/07/29 06:15:29;;;;;;;4.95;3.78;;;;;;;;;;4953701;29;20127;-74
2023/07/29 06:17:55;;;;;;;7.30;3.65;;;;;;;;;;4953638;28;20055;-73
2023/07/29 06:20:21;;;;;;;6.65;4.18;;;;;;;;;;4951226;29;20039;-74
2023/07/29 06:22:47;;;;;;;8.52;4.32;;;;;;;;;;4951320;29;20027;-73
2023/07/29 06:25:13;;;;;;;4.65;3.60;;;;;;;;;;4950872;29;20043;-74
2023/07/29 06:27:39;;;;;;;4.93;3.90;;;;;;;;;;4952551;28;20032;-74
2023/07/29 06:30:05;;;;;;;4.28;3.78;;;;;;;;;;4952332;29;20043;-73
2023/07/29 06:32:31;;;;;;;4.43;4.00;;;;;;;;;;4953433;28;20402;-76
2023/07/29 06:34:57;;;;;;;4.63;4.05;;;;;;;;;;4954287;29;20043;-74
2023/07/29 06:37:23;;;;;;;4.95;4.00;;;;;;;;;;4954597;28;20031;-74
2023/07/29 06:39:50;;;;;;;4.05;3.83;;;;;;;;;;4953916;28;20042;-74
2023/07/29 06:42:16;;;;;;;3.90;3.50;;;;;;;;;;4954033;28;20498;-75
2023/07/29 06:44:42;;;;;;;3.65;3.42;;;;;;;;;;4954338;28;20054;-75
2023/07/29 06:47:08;;;;;;;5.75;3.45;;;;;;;;;;4952785;28;20063;-73
2023/07/29 06:49:34;;;;;;;3.15;2.95;;;;;;;;;;4952652;29;20552;-74
2023/07/29 06:52:01;;;;;;;4.55;3.50;;;;;;;;;;4953314;28;20039;-74
2023/07/29 06:54:27;;;;;;;3.97;3.72;;;;;;;;;;4953726;28;20039;-74
2023/07/29 06:56:53;;;;;;;4.18;3.83;;;;;;;;;;4953489;28;20043;-75
2023/07/29 06:59:19;;;;;;;4.07;3.45;;;;;;;;;;4952851;29;20090;-75
2023/07/29 07:01:45;;;;;;;4.18;3.88;;;;;;;;;;4950866;29;20070;-73
2023/07/29 07:04:12;;;;;;;4.47;4.18;;;;;;;;;;4950748;29;20506;-72
2023/07/29 07:06:38;;;;;;;6.00;3.90;;;;;;;;;;4952336;29;20039;-72
2023/07/29 07:09:04;;;;;;;5.90;3.58;;;;;;;;;;4950916;29;20049;-73
2023/07/29 07:11:30;;;;;;;3.97;3.58;;;;;;;;;;4950924;29;20079;-74
2023/07/29 07:13:56;;;;;;;4.25;3.85;;;;;;;;;;4952574;28;20046;-74
2023/07/29 07:16:23;;;;;;;4.60;3.65;;;;;;;;;;4934585;29;20035;-73
2023/07/29 07:18:48;;;;;;;4.43;3.90;;;;;;;;;;4950835;29;20478;-74
2023/07/29 07:21:14;;;;;;;3.90;3.60;;;;;;;;;;4952927;29;20525;-74
2023/07/29 07:23:41;;;;;;;3.80;3.55;;;;;;;;;;4953173;29;20043;-72
2023/07/29 07:26:07;;;;;;;4.75;3.60;;;;;;;;;;4950679;29;20182;-73
2023/07/29 07:28:33;;;;;;;4.13;3.80;;;;;;;;;;4951056;29;20121;-74
2023/07/29 07:30:59;;;;;;;4.00;3.42;;;;;;;;;;4952125;28;20043;-73
2023/07/29 07:33:25;;;;;;;4.45;3.42;;;;;;;;;;4950883;29;20039;-72
2023/07/29 07:35:51;;;;;;;3.85;3.55;;;;;;;;;;4950734;29;20043;-74
2023/07/29 07:38:17;;;;;;;4.45;3.78;;;;;;;;;;4950110;29;20035;-74
2023/07/29 07:40:52;;;;;;;3.83;3.63;;;;;;;;;;4951675;28;20231;-74
2023/07/29 07:43:19;;;;;;;3.78;3.58;;;;;;;;;;4951375;29;20043;-74
2023/07/29 07:45:44;;;;;;;3.38;3.17;;;;;;;;;;4951505;28;20490;-74
2023/07/29 07:48:12;;;;;;;3.53;3.33;;;;;;;;;;4949918;29;20035;-75
2023/07/29 07:50:39;;;;;;;3.63;3.42;;;;;;;;;;4951389;28;20434;-73
2023/07/29 07:53:05;;;;;;;3.50;3.30;;;;;;;;;;4951049;28;20406;-74
2023/07/29 07:55:31;;;;;;;3.78;3.47;;;;;;;;;;4951340;29;20050;-73
2023/07/29 07:57:57;;;;;;;4.00;3.70;;;;;;;;;;4951288;28;20051;-74
2023/07/29 08:00:23;;;;;;;3.47;3.28;;;;;;;;;;4954710;28;20102;-75
2023/07/29 08:02:49;;;;;;;4.68;4.38;;;;;;;;;;4954881;28;20043;-74
2023/07/29 08:05:16;;;;;;;4.03;3.75;;;;;;;;;;4953168;29;20491;-74
2023/07/29 08:07:42;;;;;;;3.22;3.03;;;;;;;;;;4954699;29;20035;-75
2023/07/29 08:10:08;;;;;;;5.82;3.55;;;;;;;;;;4954223;28;20047;-74
2023/07/29 08:12:34;;;;;;;4.18;3.88;;;;;;;;;;4953386;29;20521;-74
2023/07/29 08:15:00;;;;;;;3.83;3.60;;;;;;;;;;4954453;28;20043;-74
2023/07/29 08:17:26;;;;;;;4.35;4.10;;;;;;;;;;4954417;28;20434;-74
2023/07/29 08:19:52;;;;;;;4.25;3.85;;;;;;;;;;4954552;29;20573;-74
2023/07/29 08:22:18;;;;;;;7.97;4.43;;;;;;;;;;4954087;28;20041;-73
2023/07/29 08:24:44;;;;;;;4.82;4.43;;;;;;;;;;4954398;28;20502;-73
2023/07/29 08:27:10;;;;;;;4.97;4.53;;;;;;;;;;4954038;28;20054;-74
2023/07/29 08:29:36;;;;;;;5.80;5.20;;;;;;;;;;4954412;28;20051;-74
2023/07/29 08:32:02;;;;;;;7.18;4.53;;;;;;;;;;4954107;29;20477;-73
2023/07/29 08:34:28;;;;;;;4.45;4.05;;;;;;;;;;4953253;29;20098;-74
2023/07/29 08:36:54;;;;;;;6.05;5.55;;;;;;;;;;4955374;28;20518;-73
2023/07/29 08:39:21;;;;;;;5.05;4.70;;;;;;;;;;4955299;29;20091;-73
2023/07/29 08:41:53;;;;;;;6.72;5.18;;;;;;;;;;4954271;29;20074;-73
2023/07/29 08:44:23;;;;;;;6.88;4.53;;;;;;;;;;4954062;28;20094;-74
2023/07/29 08:46:50;;;;;;;5.60;5.10;;;;;;;;;;4954034;28;20027;-74
2023/07/29 08:49:20;;;;;;;5.45;4.90;;;;;;;;;;4953708;28;20130;-74
2023/07/29 08:51:48;;;;;;;5.93;5.35;;;;;;;;;;4952595;29;20065;-73
2023/07/29 08:54:14;;;;;;;5.90;5.30;;;;;;;;;;4953507;29;20035;-74
2023/07/29 08:56:42;;;;;;;5.80;5.38;;;;;;;;;;4953467;28;20122;-74
2023/07/29 08:59:09;;;;;;;5.50;4.85;;;;;;;;;;4952329;29;20129;-74
2023/07/29 09:01:35;;;;;;;5.68;5.00;;;;;;;;;;4968433;28;20045;-74
2023/07/29 09:04:01;;;;;;;6.13;5.70;;;;;;;;;;4953437;28;20043;-73
2023/07/29 09:06:27;;;;;;;6.25;5.65;;;;;;;;;;4953453;29;20394;-73
2023/07/29 09:08:53;;;;;;;6.63;6.03;;;;;;;;;;4953546;28;20045;-74
2023/07/29 09:11:20;;;;;;;5.32;4.75;;;;;;;;;;4952547;28;20039;-73
2023/07/29 09:13:46;;;;;;;6.28;5.78;;;;;;;;;;4952259;29;20035;-74
2023/07/29 09:16:13;;;;;;;6.63;5.70;;;;;;;;;;4953054;28;20042;-73
2023/07/29 09:18:39;;;;;;;5.10;4.80;;;;;;;;;;4952290;28;20426;-73
2023/07/29 09:21:05;;;;;;;5.10;4.70;;;;;;;;;;4951739;29;20132;-73
2023/07/29 09:23:41;;;;;;;9.57;4.60;;;;;;;;;;4953452;28;20106;-72
2023/07/29 09:26:07;;;;;;;6.68;4.50;;;;;;;;;;4952903;28;20110;-74
2023/07/29 09:28:33;;;;;;;4.30;3.97;;;;;;;;;;4953217;29;20526;-73
2023/07/29 09:30:59;;;;;;;4.30;3.97;;;;;;;;;;4951720;29;20114;-73
2023/07/29 09:33:26;;;;;;;5.75;4.20;;;;;;;;;;4953068;29;20046;-73
2023/07/29 09:35:52;;;;;;;3.65;3.45;;;;;;;;;;4953105;28;20098;-72
2023/07/29 09:38:18;;;;;;;4.13;3.83;;;;;;;;;;4952943;28;20035;-72
2023/07/29 09:40:45;;;;;;;4.25;4.00;;;;;;;;;;4952979;28;20046;-73
2023/07/29 09:43:11;;;;;;;4.93;3.90;;;;;;;;;;4953310;29;20051;-73
2023/07/29 09:45:37;;;;;;;7.55;3.90;;;;;;;;;;4951610;29;20069;-73
2023/07/29 09:48:04;;;;;;;3.47;3.17;;;;;;;;;;4952574;28;20040;-72
2023/07/29 09:50:31;;;;;;;4.22;3.92;;;;;;;;;;4952805;29;20055;-74
2023/07/29 09:53:00;;;;;;;5.25;4.88;;;;;;;;;;4951328;29;20062;-73
2023/07/29 09:55:26;;;;;;;5.07;4.10;;;;;;;;;;4952631;29;20039;-74
2023/07/29 09:57:53;;;;;;;4.63;4.00;;;;;;;;;;4952490;29;20059;-74
2023/07/29 10:00:19;;;;;;;4.20;3.95;;;;;;;;;;4952410;28;20046;-74
2023/07/29 10:02:46;;;;;;;4.72;4.40;;;;;;;;;;4951357;29;20336;-74
2023/07/29 10:05:12;;;;;;;4.25;3.95;;;;;;;;;;4952528;28;20409;-74
2023/07/29 10:07:38;;;;;;;5.28;4.75;;;;;;;;;;4952325;29;20035;-72
2023/07/29 10:10:05;;;;;;;4.97;4.47;;;;;;;;;;4952167;29;20098;-74
2023/07/29 10:12:31;;;;;;;6.85;4.35;;;;;;;;;;4952430;29;20090;-73
2023/07/29 10:14:59;;;;;;;5.20;4.70;;;;;;;;;;4952528;28;20125;-74
2023/07/29 10:17:26;;;;;;;4.90;4.60;;;;;;;;;;4952120;28;20035;-74
2023/07/29 10:19:52;;;;;;;5.40;4.95;;;;;;;;;;4951254;29;20070;-74
2023/07/29 10:22:19;;;;;;;6.53;5.15;;;;;;;;;;4949794;28;20098;-75
2023/07/29 10:24:45;;;;;;;5.72;5.25;;;;;;;;;;4950992;29;20465;-73
2023/07/29 10:27:11;;;;;;;4.95;4.65;;;;;;;;;;4951917;28;20557;-73
2023/07/29 10:29:38;;;;;;;5.55;5.05;;;;;;;;;;4952026;28;20510;-73
2023/07/29 10:32:04;;;;;;;4.55;4.15;;;;;;;;;;4951464;28;20042;-73
2023/07/29 10:34:30;;;;;;;5.32;4.10;;;;;;;;;;4951723;28;20039;-74
2023/07/29 10:36:56;;;;;;;4.65;4.25;;;;;;;;;;4950200;29;20409;-73
2023/07/29 10:39:24;;;;;;;5.35;4.93;;;;;;;;;;4951490;28;20126;-74
2023/07/29 10:41:57;;;;;;;4.55;4.03;;;;;;;;;;4952050;29;20046;-74
2023/07/29 10:44:46;;;;;;;3.67;3.38;;;;;;;;;;4952271;28;20023;-75
2023/07/29 10:47:12;;;;;;;5.00;4.32;;;;;;;;;;4952920;28;20151;-73
2023/07/29 10:49:41;;;;;;;3.58;3.33;;;;;;;;;;4953859;29;20051;-73
2023/07/29 10:52:07;;;;;;;3.72;3.42;;;;;;;;;;4951832;29;20039;-72
2023/07/29 10:54:43;;;;;;;3.58;3.38;;;;;;;;;;4952208;28;20049;-74
2023/07/29 10:57:12;;;;;;;3.42;3.22;;;;;;;;;;4934128;29;20058;-73
2023/07/29 10:59:38;;;;;;;4.32;3.47;;;;;;;;;;4951757;29;20039;-73
2023/07/29 11:02:11;;;;;;;3.47;3.17;;;;;;;;;;4952246;29;20031;-74
2023/07/29 11:04:48;;;;;;;3.28;3.00;;;;;;;;;;4953815;29;20041;-74
2023/07/29 11:07:14;;;;;;;3.30;3.10;;;;;;;;;;4952678;28;20494;-73
2023/07/29 11:09:49;;;;;;;3.83;3.53;;;;;;;;;;4952974;29;20043;-74
2023/07/29 11:12:34;;;;;;;4.55;3.20;;;;;;;;;;4952811;28;20035;-74
2023/07/29 11:15:00;;;;;;;3.70;3.40;;;;;;;;;;4951607;29;20525;-73
2023/07/29 11:17:27;;;;;;;4.18;3.05;;;;;;;;;;4952456;28;20454;-73
2023/07/29 11:19:52;;;;;;;3.40;3.20;;;;;;;;;;4952686;28;20043;-74
2023/07/29 11:22:18;;;;;;;4.22;3.78;;;;;;;;;;4951173;28;20078;-73
2023/07/29 11:24:45;;;;;;;5.15;4.05;;;;;;;;;;4951932;29;20051;-72
2023/07/29 11:27:14;;;;;;;4.32;3.92;;;;;;;;;;4952724;28;20498;-73
2023/07/29 11:29:39;;;;;;;5.85;5.25;;;;;;;;;;4952115;28;20051;-72
2023/07/29 11:32:05;;;;;;;5.35;4.57;;;;;;;;;;4951419;28;20038;-72
2023/07/29 11:34:32;;;;;;;4.50;4.15;;;;;;;;;;4954124;28;20163;-72
2023/07/29 11:36:58;;;;;;;5.28;4.85;;;;;;;;;;4955162;28;20122;-73
2023/07/29 11:39:23;;;;;;;4.97;4.57;;;;;;;;;;4955060;28;20039;-73
2023/07/29 11:41:50;;;;;;;5.35;4.95;;;;;;;;;;4955089;28;20054;-73
2023/07/29 11:44:19;;;;;;;5.82;5.30;;;;;;;;;;4953599;29;20042;-73
2023/07/29 11:46:48;;;;;;;8.63;5.90;;;;;;;;;;4954926;28;20580;-73
2023/07/29 11:49:14;;;;;;;7.13;5.68;;;;;;;;;;4955122;28;20609;-74
2023/07/29 11:51:41;;;;;;;10.93;7.13;;;;;;;;;;4954995;28;20099;-73
2023/07/29 11:54:08;;;;;;;7.75;5.68;;;;;;;;;;4954963;28;20040;-73
2023/07/29 11:56:34;;;;;;;10.48;6.85;;;;;;;;;;4953553;29;20541;-73
2023/07/29 11:59:02;;;;;;;8.43;6.65;;;;;;;;;;4954909;29;20093;-72
2023/07/29 12:01:28;;;;;;;8.45;6.20;;;;;;;;;;4953406;28;20031;-73
2023/07/29 12:03:57;;;;;;;7.40;6.03;;;;;;;;;;4954831;28;20073;-73
2023/07/29 12:06:24;;;;;;;5.63;5.22;;;;;;;;;;4954405;28;20043;-73
2023/07/29 12:08:51;;;;;;;6.05;4.22;;;;;;;;;;4953874;29;20421;-73
2023/07/29 12:11:16;;;;;;;4.90;4.20;;;;;;;;;;4953384;29;20470;-71
2023/07/29 12:13:43;;;;;;;5.65;5.15;;;;;;;;;;4954662;28;20047;-74
2023/07/29 12:16:09;;;;;;;5.93;5.35;;;;;;;;;;4953233;29;20051;-73
2023/07/29 12:18:35;;;;;;;6.35;5.43;;;;;;;;;;4953328;29;20114;-73
2023/07/29 12:21:01;;;;;;;6.45;5.32;;;;;;;;;;4954479;28;20053;-72
2023/07/29 12:23:27;;;;;;;6.28;5.65;;;;;;;;;;4952912;29;20557;-73
2023/07/29 12:25:59;;;;;;;5.80;5.40;;;;;;;;;;4953020;29;20505;-73
2023/07/29 12:28:25;;;;;;;9.73;5.55;;;;;;;;;;4953968;29;20036;-74
2023/07/29 12:30:54;;;;;;;6.18;5.45;;;;;;;;;;4954168;28;20050;-73
2023/07/29 12:33:33;;;;;;;5.60;5.20;;;;;;;;;;4953797;28;20050;-72
2023/07/29 12:35:59;;;;;;;7.68;5.80;;;;;;;;;;4952845;29;20098;-73
2023/07/29 12:38:28;;;;;;;6.85;6.22;;;;;;;;;;4953704;28;20035;-74
2023/07/29 12:40:54;;;;;;;6.38;5.60;;;;;;;;;;4953886;29;20031;-73
2023/07/29 12:43:20;;;;;;;6.60;5.88;;;;;;;;;;4952486;29;20043;-72
2023/07/29 12:45:49;;;;;;;5.40;4.88;;;;;;;;;;4953087;28;20031;-73
2023/07/29 12:48:15;;;;;;;5.47;4.47;;;;;;;;;;4953645;29;20042;-72
2023/07/29 12:50:41;;;;;;;5.97;5.22;;;;;;;;;;4954042;29;20589;-73
2023/07/29 12:53:07;;;;;;;6.53;5.05;;;;;;;;;;4953952;28;20050;-72
2023/07/29 12:55:33;;;;;;;6.97;4.80;;;;;;;;;;4953580;29;20043;-74
2023/07/29 12:58:00;;;;;;;5.18;4.05;;;;;;;;;;4953491;29;20059;-73
2023/07/29 13:00:26;;;;;;;5.30;4.32;;;;;;;;;;4953387;28;20058;-73
2023/07/29 13:02:52;;;;;;;4.60;4.20;;;;;;;;;;4953570;28;20027;-73
2023/07/29 13:05:19;;;;;;;6.82;5.15;;;;;;;;;;4953438;28;20043;-73
2023/07/29 13:07:45;;;;;;;5.00;4.43;;;;;;;;;;4952337;29;20115;-73
2023/07/29 13:10:11;;;;;;;4.30;4.00;;;;;;;;;;4953480;29;20409;-75
2023/07/29 13:12:37;;;;;;;6.00;4.55;;;;;;;;;;4953452;28;20042;-73
2023/07/29 13:15:04;;;;;;;5.47;4.78;;;;;;;;;;4936343;29;20043;-73
2023/07/29 13:17:31;;;;;;;8.05;4.40;;;;;;;;;;4953003;28;20569;-74
2023/07/29 13:19:57;;;;;;;4.60;4.00;;;;;;;;;;4953352;29;20031;-73
2023/07/29 13:22:22;;;;;;;5.00;4.50;;;;;;;;;;4951665;29;20037;-74
2023/07/29 13:24:49;;;;;;;4.38;3.97;;;;;;;;;;4952146;29;20395;-74
2023/07/29 13:27:15;;;;;;;4.35;3.70;;;;;;;;;;4952949;29;20019;-71
2023/07/29 13:29:41;;;;;;;4.63;3.88;;;;;;;;;;4953398;28;20130;-73
2023/07/29 13:32:07;;;;;;;4.63;4.13;;;;;;;;;;4953268;28;20031;-74
2023/07/29 13:34:34;;;;;;;6.65;5.72;;;;;;;;;;4952988;28;20101;-74
2023/07/29 13:37:00;;;;;;;6.47;4.80;;;;;;;;;;4953065;28;20058;-74
2023/07/29 13:39:27;;;;;;;4.80;4.28;;;;;;;;;;4952767;28;20039;-74
2023/07/29 13:41:53;;;;;;;7.75;4.57;;;;;;;;;;4953004;28;20047;-73
2023/07/29 13:44:21;;;;;;;4.40;4.00;;;;;;;;;;4952750;28;20031;-73
2023/07/29 13:46:47;;;;;;;5.60;4.75;;;;;;;;;;4952983;29;20043;-74
2023/07/29 13:49:13;;;;;;;4.93;4.53;;;;;;;;;;4951563;29;20134;-74
2023/07/29 13:51:39;;;;;;;4.95;4.55;;;;;;;;;;4952698;29;20046;-74
2023/07/29 13:54:05;;;;;;;5.50;4.90;;;;;;;;;;4953026;28;20573;-75
2023/07/29 13:56:31;;;;;;;6.30;5.47;;;;;;;;;;4952213;28;20055;-74
2023/07/29 13:58:58;;;;;;;6.20;5.28;;;;;;;;;;4951550;28;20039;-74
2023/07/29 14:01:24;;;;;;;4.40;4.03;;;;;;;;;;4952307;28;20039;-73
2023/07/29 14:03:50;;;;;;;4.43;3.97;;;;;;;;;;4947423;29;20063;-74
2023/07/29 14:06:16;;;;;;;5.72;4.50;;;;;;;;;;4936509;28;20388;-74
2023/07/29 14:08:41;;;;;;;7.38;4.40;;;;;;;;;;4908780;29;20044;-74
2023/07/29 14:11:08;;;;;;;4.45;4.05;;;;;;;;;;4939056;29;20052;-74
2023/07/29 14:13:34;;;;;;;7.28;5.88;;;;;;;;;;4925277;29;20590;-73
2023/07/29 14:16:03;;;;;;;12.05;5.47;;;;;;;;;;4923969;29;20039;-74
2023/07/29 14:18:30;;;;;;;7.88;4.95;;;;;;;;;;4921227;29;20036;-74
2023/07/29 14:20:56;;;;;;;6.85;4.93;;;;;;;;;;4925077;29;20525;-75
2023/07/29 14:23:22;;;;;;;10.18;5.47;;;;;;;;;;4936520;29;20750;-75
2023/07/29 14:25:48;;;;;;;5.18;4.32;;;;;;;;;;4924416;29;20035;-73
2023/07/29 14:28:14;;;;;;;4.80;4.35;;;;;;;;;;4922313;29;20047;-74
2023/07/29 14:30:41;;;;;;;5.93;4.78;;;;;;;;;;4941270;29;20533;-72
2023/07/29 14:33:07;;;;;;;8.38;4.03;;;;;;;;;;4950943;29;20038;-75
2023/07/29 14:35:33;;;;;;;13.10;5.07;;;;;;;;;;4931630;29;20035;-75
2023/07/29 14:37:59;;;;;;;7.70;4.70;;;;;;;;;;4933136;29;20487;-74
2023/07/29 14:40:26;;;;;;;7.00;4.75;;;;;;;;;;4939751;29;20040;-73